sensor_id;sensor_type;location;lat;lon;timestamp;temperature;humidity
70947;DHT22;58605;48.700;8.760;2023-06-22T00:01:54;19.70;99.90
70947;DHT22;58605;48.700;8.760;2023-06-22T00:04:20;19.40;99.90
70947;DHT22;58605;48.700;8.760;2023-06-22T00:06:46;19.20;99.90
70947;DHT22;58605;48.700;8.760;2023-06-22T00:09:13;19.20;99.90
70947;DHT22;58605;48.700;8.760;2023-06-22T00:11:39;19.50;99.90
70947;DHT22;58605;48.700;8.760;2023-06-22T00:14:07;19.60;99.90
70947;DHT22;58605;48.700;8.760;2023-06-22T00:16:33;19.50;99.90
70947;DHT22;58605;48.700;8.760;2023-06-22T00:19:00;19.40;99.90
70947;DHT22;58605;48.700;8.760;2023-06-22T00:21:28;19.50;99.90
70947;DHT22;58605;48.700;8.760;2023-06-22T00:23:54;19.60;99.90
70947;DHT22;58605;48.700;8.760;2023-06-22T00:26:21;19.50;99.90
70947;DHT22;58605;48.700;8.760;2023-06-22T00:28:48;19.50;99.90
70947;DHT22;58605;48.700;8.760;2023-06-22T00:31:15;19.40;99.90
70947;DHT22;58605;48.700;8.760;2023-06-22T00:33:42;19.40;99.90
70947;DHT22;58605;48.700;8.760;2023-06-22T00:36:08;19.50;99.90
70947;DHT22;58605;48.700;8.760;2023-06-22T00:38:34;19.50;99.90
70947;DHT22;58605;48.700;8.760;2023-06-22T00:41:01;19.60;99.90
70947;DHT22;58605;48.700;8.760;2023-06-22T00:43:27;19.50;99.90
70947;DHT22;58605;48.700;8.760;2023-06-22T00:45:55;19.40;99.90
70947;DHT22;58605;48.700;8.760;2023-06-22T00:48:24;19.20;99.90
70947;DHT22;58605;48.700;8.760;2023-06-22T00:50:51;19.20;99.90
70947;DHT22;58605;48.700;8.760;2023-06-22T00:53:19;19.10;99.90
70947;DHT22;58605;48.700;8.760;2023-06-22T00:55:46;18.80;99.90
70947;DHT22;58605;48.700;8.760;2023-06-22T00:58:13;18.90;99.90
70947;DHT22;58605;48.700;8.760;2023-06-22T01:00:40;19.10;99.90
70947;DHT22;58605;48.700;8.760;2023-06-22T01:03:07;19.30;99.90
70947;DHT22;58605;48.700;8.760;2023-06-22T01:05:39;19.40;99.90
70947;DHT22;58605;48.700;8.760;2023-06-22T01:08:12;19.60;99.90
70947;DHT22;58605;48.700;8.760;2023-06-22T01:10:46;19.80;99.90
70947;DHT22;58605;48.700;8.760;2023-06-22T01:13:20;20.00;99.90
70947;DHT22;58605;48.700;8.760;2023-06-22T01:15:53;20.20;99.90
70947;DHT22;58605;48.700;8.760;2023-06-22T01:18:23;20.20;99.90
70947;DHT22;58605;48.700;8.760;2023-06-22T01:20:54;20.10;99.90
70947;DHT22;58605;48.700;8.760;2023-06-22T01:23:29;20.00;99.90
70947;DHT22;58605;48.700;8.760;2023-06-22T01:26:06;19.90;99.90
70947;DHT22;58605;48.700;8.760;2023-06-22T01:28:45;19.70;99.90
70947;DHT22;58605;48.700;8.760;2023-06-22T01:31:14;19.40;99.90
70947;DHT22;58605;48.700;8.760;2023-06-22T01:33:44;19.20;99.90
70947;DHT22;58605;48.700;8.760;2023-06-22T01:36:13;19.00;99.90
70947;DHT22;58605;48.700;8.760;2023-06-22T01:38:40;18.90;99.90
70947;DHT22;58605;48.700;8.760;2023-06-22T01:41:08;18.80;99.90
70947;DHT22;58605;48.700;8.760;2023-06-22T01:43:35;18.70;99.90
70947;DHT22;58605;48.700;8.760;2023-06-22T01:46:03;18.70;99.90
70947;DHT22;58605;48.700;8.760;2023-06-22T01:48:30;18.50;99.90
70947;DHT22;58605;48.700;8.760;2023-06-22T01:50:57;18.60;99.90
70947;DHT22;58605;48.700;8.760;2023-06-22T01:53:24;18.70;99.90
70947;DHT22;58605;48.700;8.760;2023-06-22T01:55:50;18.70;99.90
70947;DHT22;58605;48.700;8.760;2023-06-22T01:58:16;18.60;99.90
70947;DHT22;58605;48.700;8.760;2023-06-22T02:00:48;18.50;99.90
70947;DHT22;58605;48.700;8.760;2023-06-22T02:03:18;18.40;99.90
70947;DHT22;58605;48.700;8.760;2023-06-22T02:05:49;18.30;99.90
70947;DHT22;58605;48.700;8.760;2023-06-22T02:08:19;18.30;99.90
70947;DHT22;58605;48.700;8.760;2023-06-22T02:10:47;18.20;99.90
70947;DHT22;58605;48.700;8.760;2023-06-22T02:13:15;18.20;99.90
70947;DHT22;58605;48.700;8.760;2023-06-22T02:15:41;18.20;99.90
70947;DHT22;58605;48.700;8.760;2023-06-22T02:18:07;18.20;99.90
70947;DHT22;58605;48.700;8.760;2023-06-22T02:20:38;18.50;99.90
70947;DHT22;58605;48.700;8.760;2023-06-22T02:23:05;18.40;99.90
70947;DHT22;58605;48.700;8.760;2023-06-22T02:25:32;18.40;99.90
70947;DHT22;58605;48.700;8.760;2023-06-22T02:27:58;18.20;99.90
70947;DHT22;58605;48.700;8.760;2023-06-22T02:30:24;18.20;99.90
70947;DHT22;58605;48.700;8.760;2023-06-22T02:32:50;18.30;99.90
70947;DHT22;58605;48.700;8.760;2023-06-22T02:35:25;18.40;99.90
70947;DHT22;58605;48.700;8.760;2023-06-22T02:37:52;18.40;99.90
70947;DHT22;58605;48.700;8.760;2023-06-22T02:40:18;18.30;99.90
70947;DHT22;58605;48.700;8.760;2023-06-22T02:42:44;18.20;99.90
70947;DHT22;58605;48.700;8.760;2023-06-22T02:45:10;18.00;99.90
70947;DHT22;58605;48.700;8.760;2023-06-22T02:47:37;18.00;99.90
70947;DHT22;58605;48.700;8.760;2023-06-22T02:50:03;17.80;99.90
70947;DHT22;58605;48.700;8.760;2023-06-22T02:52:29;17.70;99.90
70947;DHT22;58605;48.700;8.760;2023-06-22T02:54:57;17.70;99.90
70947;DHT22;58605;48.700;8.760;2023-06-22T02:57:23;17.60;99.90
70947;DHT22;58605;48.700;8.760;2023-06-22T02:59:49;17.60;99.90
70947;DHT22;58605;48.700;8.760;2023-06-22T03:02:15;17.50;99.90
70947;DHT22;58605;48.700;8.760;2023-06-22T03:04:41;17.50;99.90
70947;DHT22;58605;48.700;8.760;2023-06-22T03:07:08;17.50;99.90
70947;DHT22;58605;48.700;8.760;2023-06-22T03:09:34;17.50;99.90
70947;DHT22;58605;48.700;8.760;2023-06-22T03:12:02;17.60;99.90
70947;DHT22;58605;48.700;8.760;2023-06-22T03:14:28;17.70;99.90
70947;DHT22;58605;48.700;8.760;2023-06-22T03:16:54;17.60;99.90
70947;DHT22;58605;48.700;8.760;2023-06-22T03:19:20;17.50;99.90
70947;DHT22;58605;48.700;8.760;2023-06-22T03:21:47;17.60;99.90
70947;DHT22;58605;48.700;8.760;2023-06-22T03:24:13;17.50;99.90
70947;DHT22;58605;48.700;8.760;2023-06-22T03:26:39;17.50;99.90
70947;DHT22;58605;48.700;8.760;2023-06-22T03:29:07;17.50;99.90
70947;DHT22;58605;48.700;8.760;2023-06-22T03:31:33;17.40;99.90
70947;DHT22;58605;48.700;8.760;2023-06-22T03:33:59;17.40;99.90
70947;DHT22;58605;48.700;8.760;2023-06-22T03:36:25;17.40;99.90
70947;DHT22;58605;48.700;8.760;2023-06-22T03:38:51;17.40;99.90
70947;DHT22;58605;48.700;8.760;2023-06-22T03:41:17;17.40;99.90
70947;DHT22;58605;48.700;8.760;2023-06-22T03:43:43;17.50;99.90
70947;DHT22;58605;48.700;8.760;2023-06-22T03:46:11;17.40;99.90
70947;DHT22;58605;48.700;8.760;2023-06-22T03:48:38;17.30;99.90
70947;DHT22;58605;48.700;8.760;2023-06-22T03:51:04;17.40;99.90
70947;DHT22;58605;48.700;8.760;2023-06-22T03:53:30;17.40;99.90
70947;DHT22;58605;48.700;8.760;2023-06-22T03:55:56;17.40;99.90
70947;DHT22;58605;48.700;8.760;2023-06-22T03:58:22;17.40;99.90
70947;DHT22;58605;48.700;8.760;2023-06-22T04:00:50;17.40;99.90
70947;DHT22;58605;48.700;8.760;2023-06-22T04:03:18;17.40;99.90
70947;DHT22;58605;48.700;8.760;2023-06-22T04:05:45;17.40;99.90
70947;DHT22;58605;48.700;8.760;2023-06-22T04:08:12;17.50;99.90
70947;DHT22;58605;48.700;8.760;2023-06-22T04:10:44;17.60;99.90
70947;DHT22;58605;48.700;8.760;2023-06-22T04:13:17;17.80;99.90
70947;DHT22;58605;48.700;8.760;2023-06-22T04:15:43;17.80;99.90
70947;DHT22;58605;48.700;8.760;2023-06-22T04:18:09;17.90;99.90
70947;DHT22;58605;48.700;8.760;2023-06-22T04:20:37;17.90;99.90
70947;DHT22;58605;48.700;8.760;2023-06-22T04:23:03;18.00;99.90
70947;DHT22;58605;48.700;8.760;2023-06-22T04:25:29;18.00;99.90
70947;DHT22;58605;48.700;8.760;2023-06-22T04:27:55;18.00;99.90
70947;DHT22;58605;48.700;8.760;2023-06-22T04:30:22;18.10;99.90
70947;DHT22;58605;48.700;8.760;2023-06-22T04:32:48;18.20;99.90
70947;DHT22;58605;48.700;8.760;2023-06-22T04:35:23;18.30;99.90
70947;DHT22;58605;48.700;8.760;2023-06-22T04:37:52;18.40;99.90
70947;DHT22;58605;48.700;8.760;2023-06-22T04:40:21;18.50;99.90
70947;DHT22;58605;48.700;8.760;2023-06-22T04:42:47;18.60;99.90
70947;DHT22;58605;48.700;8.760;2023-06-22T04:45:19;18.70;99.90
70947;DHT22;58605;48.700;8.760;2023-06-22T04:47:45;18.90;99.90
70947;DHT22;58605;48.700;8.760;2023-06-22T04:50:11;18.90;99.90
70947;DHT22;58605;48.700;8.760;2023-06-22T04:52:38;18.90;99.90
70947;DHT22;58605;48.700;8.760;2023-06-22T04:55:07;18.90;99.90
70947;DHT22;58605;48.700;8.760;2023-06-22T04:57:34;19.00;99.90
70947;DHT22;58605;48.700;8.760;2023-06-22T05:00:00;19.10;99.90
70947;DHT22;58605;48.700;8.760;2023-06-22T05:02:39;19.20;99.90
70947;DHT22;58605;48.700;8.760;2023-06-22T05:05:05;19.40;99.90
70947;DHT22;58605;48.700;8.760;2023-06-22T05:07:33;19.50;99.90
70947;DHT22;58605;48.700;8.760;2023-06-22T05:09:59;19.60;99.90
70947;DHT22;58605;48.700;8.760;2023-06-22T05:12:27;19.70;99.90
70947;DHT22;58605;48.700;8.760;2023-06-22T05:14:54;19.60;99.90
70947;DHT22;58605;48.700;8.760;2023-06-22T05:17:20;19.70;99.90
70947;DHT22;58605;48.700;8.760;2023-06-22T05:19:46;19.80;99.90
70947;DHT22;58605;48.700;8.760;2023-06-22T05:22:14;19.90;99.90
70947;DHT22;58605;48.700;8.760;2023-06-22T05:24:41;20.00;99.90
70947;DHT22;58605;48.700;8.760;2023-06-22T05:27:07;20.00;99.90
70947;DHT22;58605;48.700;8.760;2023-06-22T05:29:34;20.10;99.90
70947;DHT22;58605;48.700;8.760;2023-06-22T05:32:01;20.10;99.90
70947;DHT22;58605;48.700;8.760;2023-06-22T05:34:27;20.20;99.90
70947;DHT22;58605;48.700;8.760;2023-06-22T05:36:53;20.40;99.90
70947;DHT22;58605;48.700;8.760;2023-06-22T05:39:19;20.40;99.90
70947;DHT22;58605;48.700;8.760;2023-06-22T05:41:46;20.40;99.90
70947;DHT22;58605;48.700;8.760;2023-06-22T05:44:12;20.40;99.90
70947;DHT22;58605;48.700;8.760;2023-06-22T05:46:42;20.40;99.90
70947;DHT22;58605;48.700;8.760;2023-06-22T05:49:12;20.40;99.90
70947;DHT22;58605;48.700;8.760;2023-06-22T05:51:39;20.60;99.90
70947;DHT22;58605;48.700;8.760;2023-06-22T05:54:05;20.70;99.90
70947;DHT22;58605;48.700;8.760;2023-06-22T05:56:31;20.70;99.90
70947;DHT22;58605;48.700;8.760;2023-06-22T05:58:57;20.80;99.90
70947;DHT22;58605;48.700;8.760;2023-06-22T06:01:23;20.90;99.90
70947;DHT22;58605;48.700;8.760;2023-06-22T06:03:53;21.00;99.90
70947;DHT22;58605;48.700;8.760;2023-06-22T06:06:19;21.10;99.90
70947;DHT22;58605;48.700;8.760;2023-06-22T06:08:54;21.30;99.90
70947;DHT22;58605;48.700;8.760;2023-06-22T06:11:21;21.50;99.90
70947;DHT22;58605;48.700;8.760;2023-06-22T06:13:47;21.50;99.90
70947;DHT22;58605;48.700;8.760;2023-06-22T06:16:13;21.60;99.90
70947;DHT22;58605;48.700;8.760;2023-06-22T06:18:39;21.70;99.90
70947;DHT22;58605;48.700;8.760;2023-06-22T06:21:07;21.80;99.90
70947;DHT22;58605;48.700;8.760;2023-06-22T06:23:33;21.90;99.90
70947;DHT22;58605;48.700;8.760;2023-06-22T06:25:59;22.10;99.90
70947;DHT22;58605;48.700;8.760;2023-06-22T06:28:33;22.20;99.90
70947;DHT22;58605;48.700;8.760;2023-06-22T06:30:59;22.20;99.90
70947;DHT22;58605;48.700;8.760;2023-06-22T06:33:25;22.40;99.90
70947;DHT22;58605;48.700;8.760;2023-06-22T06:35:51;22.40;99.90
70947;DHT22;58605;48.700;8.760;2023-06-22T06:38:19;22.50;99.90
70947;DHT22;58605;48.700;8.760;2023-06-22T06:40:45;22.50;99.90
70947;DHT22;58605;48.700;8.760;2023-06-22T06:43:13;22.50;99.90
70947;DHT22;58605;48.700;8.760;2023-06-22T06:45:39;22.60;99.90
70947;DHT22;58605;48.700;8.760;2023-06-22T06:48:05;22.70;99.90
70947;DHT22;58605;48.700;8.760;2023-06-22T06:50:31;22.90;99.90
70947;DHT22;58605;48.700;8.760;2023-06-22T06:52:58;23.00;99.90
70947;DHT22;58605;48.700;8.760;2023-06-22T06:55:26;23.00;99.90
70947;DHT22;58605;48.700;8.760;2023-06-22T06:57:52;23.00;97.90
70947;DHT22;58605;48.700;8.760;2023-06-22T07:00:19;23.10;99.90
70947;DHT22;58605;48.700;8.760;2023-06-22T07:02:45;23.20;99.20
70947;DHT22;58605;48.700;8.760;2023-06-22T07:05:14;23.30;97.00
70947;DHT22;58605;48.700;8.760;2023-06-22T07:07:40;23.50;96.00
70947;DHT22;58605;48.700;8.760;2023-06-22T07:10:08;23.50;96.50
70947;DHT22;58605;48.700;8.760;2023-06-22T07:12:36;23.50;95.20
70947;DHT22;58605;48.700;8.760;2023-06-22T07:15:03;23.50;95.50
70947;DHT22;58605;48.700;8.760;2023-06-22T07:17:30;23.50;95.10
70947;DHT22;58605;48.700;8.760;2023-06-22T07:19:56;23.60;93.00
70947;DHT22;58605;48.700;8.760;2023-06-22T07:22:22;23.60;93.70
70947;DHT22;58605;48.700;8.760;2023-06-22T07:24:48;23.60;93.90
70947;DHT22;58605;48.700;8.760;2023-06-22T07:27:15;23.50;93.70
70947;DHT22;58605;48.700;8.760;2023-06-22T07:29:46;23.60;92.70
70947;DHT22;58605;48.700;8.760;2023-06-22T07:32:12;23.80;92.10
70947;DHT22;58605;48.700;8.760;2023-06-22T07:34:38;23.70;92.20
70947;DHT22;58605;48.700;8.760;2023-06-22T07:37:05;23.80;91.90
70947;DHT22;58605;48.700;8.760;2023-06-22T07:39:32;24.00;90.70
70947;DHT22;58605;48.700;8.760;2023-06-22T07:41:58;24.00;91.30
70947;DHT22;58605;48.700;8.760;2023-06-22T07:44:25;23.90;91.10
70947;DHT22;58605;48.700;8.760;2023-06-22T07:46:53;23.80;91.50
70947;DHT22;58605;48.700;8.760;2023-06-22T07:49:19;23.60;91.50
70947;DHT22;58605;48.700;8.760;2023-06-22T07:51:48;23.50;92.00
70947;DHT22;58605;48.700;8.760;2023-06-22T07:54:15;23.40;92.20
70947;DHT22;58605;48.700;8.760;2023-06-22T07:56:42;23.40;92.00
70947;DHT22;58605;48.700;8.760;2023-06-22T07:59:08;23.30;92.00
70947;DHT22;58605;48.700;8.760;2023-06-22T08:01:35;23.40;91.90
70947;DHT22;58605;48.700;8.760;2023-06-22T08:04:02;23.20;92.60
70947;DHT22;58605;48.700;8.760;2023-06-22T08:06:30;22.90;93.50
70947;DHT22;58605;48.700;8.760;2023-06-22T08:08:56;23.00;93.90
70947;DHT22;58605;48.700;8.760;2023-06-22T08:11:23;23.10;93.90
70947;DHT22;58605;48.700;8.760;2023-06-22T08:13:51;23.10;93.20
70947;DHT22;58605;48.700;8.760;2023-06-22T08:16:32;22.90;93.80
70947;DHT22;58605;48.700;8.760;2023-06-22T08:18:58;22.50;94.90
70947;DHT22;58605;48.700;8.760;2023-06-22T08:21:25;22.40;95.80
70947;DHT22;58605;48.700;8.760;2023-06-22T08:23:55;22.40;96.80
70947;DHT22;58605;48.700;8.760;2023-06-22T08:26:21;22.30;97.00
70947;DHT22;58605;48.700;8.760;2023-06-22T08:28:47;22.40;97.10
70947;DHT22;58605;48.700;8.760;2023-06-22T08:31:13;22.40;97.30
70947;DHT22;58605;48.700;8.760;2023-06-22T08:33:40;22.60;98.30
70947;DHT22;58605;48.700;8.760;2023-06-22T08:36:06;22.60;96.40
70947;DHT22;58605;48.700;8.760;2023-06-22T08:38:35;22.60;96.90
70947;DHT22;58605;48.700;8.760;2023-06-22T08:41:01;22.60;97.50
70947;DHT22;58605;48.700;8.760;2023-06-22T08:43:28;22.70;97.10
70947;DHT22;58605;48.700;8.760;2023-06-22T08:45:54;22.70;95.80
70947;DHT22;58605;48.700;8.760;2023-06-22T08:48:20;22.90;95.40
70947;DHT22;58605;48.700;8.760;2023-06-22T08:50:47;23.00;94.70
70947;DHT22;58605;48.700;8.760;2023-06-22T08:53:13;23.30;94.60
70947;DHT22;58605;48.700;8.760;2023-06-22T08:55:40;23.30;93.50
70947;DHT22;58605;48.700;8.760;2023-06-22T08:58:06;23.30;93.00
70947;DHT22;58605;48.700;8.760;2023-06-22T09:00:33;23.30;92.90
70947;DHT22;58605;48.700;8.760;2023-06-22T09:03:00;23.40;92.20
70947;DHT22;58605;48.700;8.760;2023-06-22T09:05:26;23.40;92.50
70947;DHT22;58605;48.700;8.760;2023-06-22T09:07:53;23.50;92.90
70947;DHT22;58605;48.700;8.760;2023-06-22T09:10:22;23.50;92.30
70947;DHT22;58605;48.700;8.760;2023-06-22T09:12:50;23.50;92.60
70947;DHT22;58605;48.700;8.760;2023-06-22T09:15:16;23.40;91.90
70947;DHT22;58605;48.700;8.760;2023-06-22T09:17:42;23.40;92.30
70947;DHT22;58605;48.700;8.760;2023-06-22T09:20:10;23.30;92.30
70947;DHT22;58605;48.700;8.760;2023-06-22T09:22:37;23.20;92.50
70947;DHT22;58605;48.700;8.760;2023-06-22T09:25:04;23.30;92.40
70947;DHT22;58605;48.700;8.760;2023-06-22T09:27:30;23.30;92.40
70947;DHT22;58605;48.700;8.760;2023-06-22T09:29:58;23.30;92.00
70947;DHT22;58605;48.700;8.760;2023-06-22T09:32:24;23.30;92.10
70947;DHT22;58605;48.700;8.760;2023-06-22T09:34:51;23.20;92.10
70947;DHT22;58605;48.700;8.760;2023-06-22T09:37:17;23.20;91.90
70947;DHT22;58605;48.700;8.760;2023-06-22T09:39:43;23.20;92.40
70947;DHT22;58605;48.700;8.760;2023-06-22T09:42:09;23.20;91.80
70947;DHT22;58605;48.700;8.760;2023-06-22T09:44:35;23.10;92.40
70947;DHT22;58605;48.700;8.760;2023-06-22T09:47:06;23.00;92.40
70947;DHT22;58605;48.700;8.760;2023-06-22T09:49:32;23.00;92.70
70947;DHT22;58605;48.700;8.760;2023-06-22T09:51:58;23.00;92.70
70947;DHT22;58605;48.700;8.760;2023-06-22T09:54:25;23.10;92.60
70947;DHT22;58605;48.700;8.760;2023-06-22T09:56:51;23.10;92.80
70947;DHT22;58605;48.700;8.760;2023-06-22T09:59:17;23.10;92.70
70947;DHT22;58605;48.700;8.760;2023-06-22T10:01:43;23.20;92.80
70947;DHT22;58605;48.700;8.760;2023-06-22T10:04:11;23.20;92.60
70947;DHT22;58605;48.700;8.760;2023-06-22T10:06:37;23.20;92.50
70947;DHT22;58605;48.700;8.760;2023-06-22T10:09:06;23.20;92.50
70947;DHT22;58605;48.700;8.760;2023-06-22T10:11:33;23.30;92.40
70947;DHT22;58605;48.700;8.760;2023-06-22T10:14:00;23.20;92.30
70947;DHT22;58605;48.700;8.760;2023-06-22T10:16:36;23.30;92.00
70947;DHT22;58605;48.700;8.760;2023-06-22T10:19:02;23.30;92.00
70947;DHT22;58605;48.700;8.760;2023-06-22T10:21:30;23.20;92.00
70947;DHT22;58605;48.700;8.760;2023-06-22T10:23:56;23.20;92.20
70947;DHT22;58605;48.700;8.760;2023-06-22T10:26:22;23.30;92.20
70947;DHT22;58605;48.700;8.760;2023-06-22T10:28:48;23.30;91.90
70947;DHT22;58605;48.700;8.760;2023-06-22T10:31:14;23.30;91.90
70947;DHT22;58605;48.700;8.760;2023-06-22T10:33:42;23.30;91.90
70947;DHT22;58605;48.700;8.760;2023-06-22T10:36:10;23.30;92.00
70947;DHT22;58605;48.700;8.760;2023-06-22T10:38:38;23.20;92.10
70947;DHT22;58605;48.700;8.760;2023-06-22T10:41:04;23.30;92.10
70947;DHT22;58605;48.700;8.760;2023-06-22T10:43:30;23.40;92.00
70947;DHT22;58605;48.700;8.760;2023-06-22T10:45:56;23.40;91.90
70947;DHT22;58605;48.700;8.760;2023-06-22T10:48:22;23.40;91.80
70947;DHT22;58605;48.700;8.760;2023-06-22T10:50:48;23.50;91.70
70947;DHT22;58605;48.700;8.760;2023-06-22T10:53:15;23.70;92.50
70947;DHT22;58605;48.700;8.760;2023-06-22T10:55:45;23.80;92.00
70947;DHT22;58605;48.700;8.760;2023-06-22T10:58:11;24.30;91.30
70947;DHT22;58605;48.700;8.760;2023-06-22T11:00:37;24.30;89.90
70947;DHT22;58605;48.700;8.760;2023-06-22T11:03:04;24.20;89.70
70947;DHT22;58605;48.700;8.760;2023-06-22T11:05:30;24.10;90.00
70947;DHT22;58605;48.700;8.760;2023-06-22T11:07:56;24.00;90.30
70947;DHT22;58605;48.700;8.760;2023-06-22T11:10:22;23.90;90.40
70947;DHT22;58605;48.700;8.760;2023-06-22T11:12:50;23.80;90.50
70947;DHT22;58605;48.700;8.760;2023-06-22T11:15:16;23.80;90.50
70947;DHT22;58605;48.700;8.760;2023-06-22T11:17:49;23.80;90.50
70947;DHT22;58605;48.700;8.760;2023-06-22T11:20:15;23.80;90.60
70947;DHT22;58605;48.700;8.760;2023-06-22T11:22:42;23.70;90.60
70947;DHT22;58605;48.700;8.760;2023-06-22T11:25:08;23.70;90.70
70947;DHT22;58605;48.700;8.760;2023-06-22T11:27:34;23.70;90.70
70947;DHT22;58605;48.700;8.760;2023-06-22T11:30:02;23.60;90.90
70947;DHT22;58605;48.700;8.760;2023-06-22T11:32:29;23.70;90.90
70947;DHT22;58605;48.700;8.760;2023-06-22T11:34:55;23.70;90.80
70947;DHT22;58605;48.700;8.760;2023-06-22T11:37:21;23.70;90.90
70947;DHT22;58605;48.700;8.760;2023-06-22T11:39:47;23.70;90.90
70947;DHT22;58605;48.700;8.760;2023-06-22T11:42:13;23.60;91.00
70947;DHT22;58605;48.700;8.760;2023-06-22T11:44:39;23.70;91.30
70947;DHT22;58605;48.700;8.760;2023-06-22T11:47:07;23.70;91.20
70947;DHT22;58605;48.700;8.760;2023-06-22T11:49:33;23.70;91.10
70947;DHT22;58605;48.700;8.760;2023-06-22T11:51:59;23.70;91.10
70947;DHT22;58605;48.700;8.760;2023-06-22T11:54:25;23.70;91.20
70947;DHT22;58605;48.700;8.760;2023-06-22T11:56:52;23.70;91.30
70947;DHT22;58605;48.700;8.760;2023-06-22T11:59:18;23.70;91.40
70947;DHT22;58605;48.700;8.760;2023-06-22T12:01:44;23.70;91.50
70947;DHT22;58605;48.700;8.760;2023-06-22T12:04:12;23.70;91.50
70947;DHT22;58605;48.700;8.760;2023-06-22T12:06:38;23.60;91.70
70947;DHT22;58605;48.700;8.760;2023-06-22T12:09:07;23.70;91.70
70947;DHT22;58605;48.700;8.760;2023-06-22T12:11:33;23.70;91.70
70947;DHT22;58605;48.700;8.760;2023-06-22T12:13:59;23.70;91.70
70947;DHT22;58605;48.700;8.760;2023-06-22T12:16:27;23.70;91.80
70947;DHT22;58605;48.700;8.760;2023-06-22T12:18:53;23.70;91.80
70947;DHT22;58605;48.700;8.760;2023-06-22T12:21:21;23.80;91.90
70947;DHT22;58605;48.700;8.760;2023-06-22T12:23:47;23.80;91.90
70947;DHT22;58605;48.700;8.760;2023-06-22T12:26:13;23.80;91.90
70947;DHT22;58605;48.700;8.760;2023-06-22T12:28:39;23.80;92.30
70947;DHT22;58605;48.700;8.760;2023-06-22T12:31:05;23.80;91.90
70947;DHT22;58605;48.700;8.760;2023-06-22T12:33:31;23.90;91.90
70947;DHT22;58605;48.700;8.760;2023-06-22T12:35:57;23.80;91.90
70947;DHT22;58605;48.700;8.760;2023-06-22T12:38:25;23.70;92.10
70947;DHT22;58605;48.700;8.760;2023-06-22T12:40:51;23.80;92.20
70947;DHT22;58605;48.700;8.760;2023-06-22T12:43:18;23.80;92.30
70947;DHT22;58605;48.700;8.760;2023-06-22T12:45:44;23.70;92.50
70947;DHT22;58605;48.700;8.760;2023-06-22T12:48:10;23.60;93.10
70947;DHT22;58605;48.700;8.760;2023-06-22T12:50:36;23.50;93.50
70947;DHT22;58605;48.700;8.760;2023-06-22T12:53:02;23.50;93.70
70947;DHT22;58605;48.700;8.760;2023-06-22T12:55:31;23.70;93.60
70947;DHT22;58605;48.700;8.760;2023-06-22T12:57:57;23.80;93.40
70947;DHT22;58605;48.700;8.760;2023-06-22T13:00:23;23.80;93.30
70947;DHT22;58605;48.700;8.760;2023-06-22T13:02:50;23.90;93.20
70947;DHT22;58605;48.700;8.760;2023-06-22T13:05:16;23.80;93.50
70947;DHT22;58605;48.700;8.760;2023-06-22T13:07:42;23.80;93.60
70947;DHT22;58605;48.700;8.760;2023-06-22T13:10:09;23.80;93.70
70947;DHT22;58605;48.700;8.760;2023-06-22T13:12:36;23.90;93.60
70947;DHT22;58605;48.700;8.760;2023-06-22T13:15:06;23.90;93.70
70947;DHT22;58605;48.700;8.760;2023-06-22T13:17:33;23.90;93.90
70947;DHT22;58605;48.700;8.760;2023-06-22T13:19:59;24.00;93.80
70947;DHT22;58605;48.700;8.760;2023-06-22T13:22:30;24.10;93.70
70947;DHT22;58605;48.700;8.760;2023-06-22T13:24:56;24.10;93.60
70947;DHT22;58605;48.700;8.760;2023-06-22T13:27:23;24.20;93.60
70947;DHT22;58605;48.700;8.760;2023-06-22T13:29:51;24.10;93.50
70947;DHT22;58605;48.700;8.760;2023-06-22T13:32:17;24.10;94.10
70947;DHT22;58605;48.700;8.760;2023-06-22T13:34:43;24.00;93.50
70947;DHT22;58605;48.700;8.760;2023-06-22T13:37:09;24.00;93.80
70947;DHT22;58605;48.700;8.760;2023-06-22T13:39:36;23.90;94.00
70947;DHT22;58605;48.700;8.760;2023-06-22T13:42:02;23.80;94.50
70947;DHT22;58605;48.700;8.760;2023-06-22T13:44:28;23.80;94.80
70947;DHT22;58605;48.700;8.760;2023-06-22T13:46:56;23.80;94.70
70947;DHT22;58605;48.700;8.760;2023-06-22T13:49:22;23.90;94.90
70947;DHT22;58605;48.700;8.760;2023-06-22T13:51:48;23.90;94.80
70947;DHT22;58605;48.700;8.760;2023-06-22T13:54:15;24.00;95.50
70947;DHT22;58605;48.700;8.760;2023-06-22T13:56:41;24.00;92.10
70947;DHT22;58605;48.700;8.760;2023-06-22T13:59:07;24.10;92.00
70947;DHT22;58605;48.700;8.760;2023-06-22T14:01:37;23.80;92.30
70947;DHT22;58605;48.700;8.760;2023-06-22T14:04:07;23.50;93.70
70947;DHT22;58605;48.700;8.760;2023-06-22T14:06:33;23.60;91.60
70947;DHT22;58605;48.700;8.760;2023-06-22T14:08:59;23.60;91.90
70947;DHT22;58605;48.700;8.760;2023-06-22T14:11:25;23.50;91.30
70947;DHT22;58605;48.700;8.760;2023-06-22T14:13:51;23.50;91.60
70947;DHT22;58605;48.700;8.760;2023-06-22T14:16:18;23.50;87.30
70947;DHT22;58605;48.700;8.760;2023-06-22T14:18:45;23.40;90.80
70947;DHT22;58605;48.700;8.760;2023-06-22T14:21:12;23.60;89.30
70947;DHT22;58605;48.700;8.760;2023-06-22T14:23:39;23.50;89.70
70947;DHT22;58605;48.700;8.760;2023-06-22T14:26:05;23.40;89.30
70947;DHT22;58605;48.700;8.760;2023-06-22T14:28:31;23.50;82.00
70947;DHT22;58605;48.700;8.760;2023-06-22T14:30:57;23.70;82.00
70947;DHT22;58605;48.700;8.760;2023-06-22T14:33:24;23.90;85.20
70947;DHT22;58605;48.700;8.760;2023-06-22T14:35:50;23.60;86.00
70947;DHT22;58605;48.700;8.760;2023-06-22T14:38:17;23.40;86.30
70947;DHT22;58605;48.700;8.760;2023-06-22T14:40:44;23.30;85.60
70947;DHT22;58605;48.700;8.760;2023-06-22T14:43:10;23.30;85.40
70947;DHT22;58605;48.700;8.760;2023-06-22T14:45:36;23.30;85.00
70947;DHT22;58605;48.700;8.760;2023-06-22T14:48:02;23.30;84.30
70947;DHT22;58605;48.700;8.760;2023-06-22T14:50:37;23.20;84.20
70947;DHT22;58605;48.700;8.760;2023-06-22T14:53:03;23.40;82.70
70947;DHT22;58605;48.700;8.760;2023-06-22T14:55:37;23.40;81.90
70947;DHT22;58605;48.700;8.760;2023-06-22T14:58:03;23.30;81.70
70947;DHT22;58605;48.700;8.760;2023-06-22T15:00:29;23.50;82.40
70947;DHT22;58605;48.700;8.760;2023-06-22T15:02:55;23.80;77.80
70947;DHT22;58605;48.700;8.760;2023-06-22T15:05:22;24.00;80.70
70947;DHT22;58605;48.700;8.760;2023-06-22T15:07:49;23.80;80.20
70947;DHT22;58605;48.700;8.760;2023-06-22T15:10:16;23.70;80.20
70947;DHT22;58605;48.700;8.760;2023-06-22T15:12:44;23.60;81.20
70947;DHT22;58605;48.700;8.760;2023-06-22T15:15:10;23.50;82.30
70947;DHT22;58605;48.700;8.760;2023-06-22T15:17:36;23.50;83.20
70947;DHT22;58605;48.700;8.760;2023-06-22T15:20:03;23.60;81.80
70947;DHT22;58605;48.700;8.760;2023-06-22T15:22:31;23.60;82.20
70947;DHT22;58605;48.700;8.760;2023-06-22T15:24:57;23.60;82.00
70947;DHT22;58605;48.700;8.760;2023-06-22T15:27:24;23.50;82.80
70947;DHT22;58605;48.700;8.760;2023-06-22T15:29:51;23.50;82.80